sensor_id;sensor_type;location;lat;lon;timestamp;P1;durP1;ratioP1;P2;durP2;ratioP2
33138;SDS011;19501;50.948;5.316;2023-03-23T00:01:03;12.02;;;4.55;;
33138;SDS011;19501;50.948;5.316;2023-03-23T00:03:30;10.77;;;4.70;;
33138;SDS011;19501;50.948;5.316;2023-03-23T00:05:59;11.70;;;4.68;;
33138;SDS011;19501;50.948;5.316;2023-03-23T00:08:34;12.63;;;4.65;;
33138;SDS011;19501;50.948;5.316;2023-03-23T00:11:09;13.30;;;4.72;;
33138;SDS011;19501;50.948;5.316;2023-03-23T00:13:46;13.38;;;4.80;;
33138;SDS011;19501;50.948;5.316;2023-03-23T00:16:16;11.02;;;4.72;;
33138;SDS011;19501;50.948;5.316;2023-03-23T00:18:55;10.07;;;4.47;;
33138;SDS011;19501;50.948;5.316;2023-03-23T00:21:23;14.32;;;5.55;;
33138;SDS011;19501;50.948;5.316;2023-03-23T00:23:58;9.30;;;3.47;;
33138;SDS011;19501;50.948;5.316;2023-03-23T00:26:25;11.00;;;4.43;;
33138;SDS011;19501;50.948;5.316;2023-03-23T00:28:54;12.07;;;4.50;;
33138;SDS011;19501;50.948;5.316;2023-03-23T00:31:21;12.13;;;4.57;;
33138;SDS011;19501;50.948;5.316;2023-03-23T00:33:47;12.73;;;4.85;;
33138;SDS011;19501;50.948;5.316;2023-03-23T00:36:14;14.02;;;5.13;;
33138;SDS011;19501;50.948;5.316;2023-03-23T00:38:40;13.65;;;5.07;;
33138;SDS011;19501;50.948;5.316;2023-03-23T00:41:09;14.57;;;5.25;;
33138;SDS011;19501;50.948;5.316;2023-03-23T00:43:36;12.77;;;5.40;;
33138;SDS011;19501;50.948;5.316;2023-03-23T00:46:02;13.30;;;4.82;;
33138;SDS011;19501;50.948;5.316;2023-03-23T00:48:33;13.00;;;4.80;;
33138;SDS011;19501;50.948;5.316;2023-03-23T00:51:00;15.85;;;5.03;;
33138;SDS011;19501;50.948;5.316;2023-03-23T00:53:31;11.00;;;5.05;;
33138;SDS011;19501;50.948;5.316;2023-03-23T00:55:57;14.73;;;5.00;;
33138;SDS011;19501;50.948;5.316;2023-03-23T00:58:26;12.32;;;5.07;;
33138;SDS011;19501;50.948;5.316;2023-03-23T01:00:51;13.48;;;5.40;;
33138;SDS011;19501;50.948;5.316;2023-03-23T01:03:17;12.52;;;4.78;;
33138;SDS011;19501;50.948;5.316;2023-03-23T01:05:43;11.60;;;4.93;;
33138;SDS011;19501;50.948;5.316;2023-03-23T01:08:12;13.75;;;5.13;;
33138;SDS011;19501;50.948;5.316;2023-03-23T01:10:39;11.45;;;4.95;;
33138;SDS011;19501;50.948;5.316;2023-03-23T01:13:06;12.55;;;5.25;;
33138;SDS011;19501;50.948;5.316;2023-03-23T01:15:32;15.20;;;4.85;;
33138;SDS011;19501;50.948;5.316;2023-03-23T01:17:58;13.80;;;5.47;;
33138;SDS011;19501;50.948;5.316;2023-03-23T01:20:24;15.10;;;5.65;;
33138;SDS011;19501;50.948;5.316;2023-03-23T01:22:54;15.98;;;5.43;;
33138;SDS011;19501;50.948;5.316;2023-03-23T01:25:25;16.45;;;5.88;;
33138;SDS011;19501;50.948;5.316;2023-03-23T01:27:55;13.43;;;5.78;;
33138;SDS011;19501;50.948;5.316;2023-03-23T01:30:22;15.65;;;4.90;;
33138;SDS011;19501;50.948;5.316;2023-03-23T01:32:48;13.50;;;5.50;;
33138;SDS011;19501;50.948;5.316;2023-03-23T01:35:16;14.77;;;5.55;;
33138;SDS011;19501;50.948;5.316;2023-03-23T01:37:42;12.27;;;5.35;;
33138;SDS011;19501;50.948;5.316;2023-03-23T01:40:08;13.10;;;5.07;;
33138;SDS011;19501;50.948;5.316;2023-03-23T01:42:35;12.45;;;5.07;;
33138;SDS011;19501;50.948;5.316;2023-03-23T01:47:55;13.95;;;5.60;;
33138;SDS011;19501;50.948;5.316;2023-03-23T01:50:26;13.23;;;5.30;;
33138;SDS011;19501;50.948;5.316;2023-03-23T01:52:55;11.32;;;5.35;;
33138;SDS011;19501;50.948;5.316;2023-03-23T01:55:23;15.10;;;5.55;;
33138;SDS011;19501;50.948;5.316;2023-03-23T01:57:51;14.55;;;5.90;;
33138;SDS011;19501;50.948;5.316;2023-03-23T02:00:18;11.75;;;5.00;;
33138;SDS011;19501;50.948;5.316;2023-03-23T02:02:45;12.73;;;5.32;;
33138;SDS011;19501;50.948;5.316;2023-03-23T02:05:15;12.90;;;5.60;;
33138;SDS011;19501;50.948;5.316;2023-03-23T02:07:56;12.90;;;5.05;;
33138;SDS011;19501;50.948;5.316;2023-03-23T02:10:27;14.57;;;6.15;;
33138;SDS011;19501;50.948;5.316;2023-03-23T02:13:00;17.00;;;5.90;;
33138;SDS011;19501;50.948;5.316;2023-03-23T02:16:33;13.68;;;5.75;;
33138;SDS011;19501;50.948;5.316;2023-03-23T02:18:35;19.23;;;6.10;;
33138;SDS011;19501;50.948;5.316;2023-03-23T02:26:48;15.23;;;6.00;;
33138;SDS011;19501;50.948;5.316;2023-03-23T02:34:28;14.93;;;5.93;;
33138;SDS011;19501;50.948;5.316;2023-03-23T02:39:30;12.15;;;5.57;;
33138;SDS011;19501;50.948;5.316;2023-03-23T02:42:07;11.15;;;4.57;;
33138;SDS011;19501;50.948;5.316;2023-03-23T02:44:38;16.40;;;5.97;;
33138;SDS011;19501;50.948;5.316;2023-03-23T02:47:08;12.43;;;5.60;;
33138;SDS011;19501;50.948;5.316;2023-03-23T02:49:39;14.93;;;5.45;;
33138;SDS011;19501;50.948;5.316;2023-03-23T02:52:11;15.25;;;5.30;;
33138;SDS011;19501;50.948;5.316;2023-03-23T02:54:41;11.85;;;5.20;;
33138;SDS011;19501;50.948;5.316;2023-03-23T02:57:09;11.95;;;4.82;;
33138;SDS011;19501;50.948;5.316;2023-03-23T02:59:35;12.30;;;5.22;;
33138;SDS011;19501;50.948;5.316;2023-03-23T03:04:55;12.27;;;5.22;;
33138;SDS011;19501;50.948;5.316;2023-03-23T03:10:08;13.77;;;5.33;;
33138;SDS011;19501;50.948;5.316;2023-03-23T03:18:42;14.75;;;5.55;;
33138;SDS011;19501;50.948;5.316;2023-03-23T03:21:10;13.85;;;5.38;;
33138;SDS011;19501;50.948;5.316;2023-03-23T03:23:39;11.77;;;4.82;;
33138;SDS011;19501;50.948;5.316;2023-03-23T03:26:09;12.10;;;5.00;;
33138;SDS011;19501;50.948;5.316;2023-03-23T03:28:37;10.60;;;4.78;;
33138;SDS011;19501;50.948;5.316;2023-03-23T03:31:04;10.38;;;4.50;;
33138;SDS011;19501;50.948;5.316;2023-03-23T03:33:31;13.73;;;5.25;;
33138;SDS011;19501;50.948;5.316;2023-03-23T03:36:02;11.90;;;4.13;;
33138;SDS011;19501;50.948;5.316;2023-03-23T03:38:40;10.73;;;4.82;;
33138;SDS011;19501;50.948;5.316;2023-03-23T03:41:06;10.32;;;3.95;;
33138;SDS011;19501;50.948;5.316;2023-03-23T03:43:32;13.00;;;4.35;;
33138;SDS011;19501;50.948;5.316;2023-03-23T03:45:57;10.60;;;4.20;;
33138;SDS011;19501;50.948;5.316;2023-03-23T03:48:23;9.52;;;4.15;;
33138;SDS011;19501;50.948;5.316;2023-03-23T03:50:49;11.43;;;4.05;;
33138;SDS011;19501;50.948;5.316;2023-03-23T03:53:17;12.80;;;4.25;;
33138;SDS011;19501;50.948;5.316;2023-03-23T03:55:42;11.77;;;4.85;;
33138;SDS011;19501;50.948;5.316;2023-03-23T03:58:13;10.88;;;4.65;;
33138;SDS011;19501;50.948;5.316;2023-03-23T04:00:39;9.75;;;4.00;;
33138;SDS011;19501;50.948;5.316;2023-03-23T04:03:06;9.38;;;4.00;;
33138;SDS011;19501;50.948;5.316;2023-03-23T04:05:32;12.35;;;4.03;;
33138;SDS011;19501;50.948;5.316;2023-03-23T04:07:58;11.90;;;4.28;;
33138;SDS011;19501;50.948;5.316;2023-03-23T04:10:26;10.20;;;4.10;;
33138;SDS011;19501;50.948;5.316;2023-03-23T04:12:54;11.75;;;4.35;;
33138;SDS011;19501;50.948;5.316;2023-03-23T04:15:22;9.60;;;4.10;;
33138;SDS011;19501;50.948;5.316;2023-03-23T04:17:48;11.93;;;3.95;;
33138;SDS011;19501;50.948;5.316;2023-03-23T04:20:16;8.75;;;3.60;;
33138;SDS011;19501;50.948;5.316;2023-03-23T04:22:43;12.20;;;3.78;;
33138;SDS011;19501;50.948;5.316;2023-03-23T04:25:11;8.48;;;3.50;;
33138;SDS011;19501;50.948;5.316;2023-03-23T04:27:38;11.10;;;3.88;;
33138;SDS011;19501;50.948;5.316;2023-03-23T04:30:08;11.52;;;3.67;;
33138;SDS011;19501;50.948;5.316;2023-03-23T04:32:34;10.63;;;3.53;;
33138;SDS011;19501;50.948;5.316;2023-03-23T04:35:00;10.13;;;4.30;;
33138;SDS011;19501;50.948;5.316;2023-03-23T04:37:27;9.85;;;3.42;;
33138;SDS011;19501;50.948;5.316;2023-03-23T04:39:59;16.27;;;4.40;;
33138;SDS011;19501;50.948;5.316;2023-03-23T04:42:29;8.52;;;3.45;;
33138;SDS011;19501;50.948;5.316;2023-03-23T04:44:56;9.55;;;3.60;;
33138;SDS011;19501;50.948;5.316;2023-03-23T04:47:23;15.07;;;4.05;;
33138;SDS011;19501;50.948;5.316;2023-03-23T04:49:50;8.65;;;3.28;;
33138;SDS011;19501;50.948;5.316;2023-03-23T04:52:16;12.60;;;3.80;;
33138;SDS011;19501;50.948;5.316;2023-03-23T04:54:42;10.38;;;3.55;;
33138;SDS011;19501;50.948;5.316;2023-03-23T04:57:09;13.20;;;3.70;;
33138;SDS011;19501;50.948;5.316;2023-03-23T04:59:35;9.75;;;2.95;;
33138;SDS011;19501;50.948;5.316;2023-03-23T05:02:00;9.48;;;3.22;;
33138;SDS011;19501;50.948;5.316;2023-03-23T05:04:26;13.48;;;3.42;;
33138;SDS011;19501;50.948;5.316;2023-03-23T05:06:52;12.93;;;3.88;;
33138;SDS011;19501;50.948;5.316;2023-03-23T05:09:18;12.80;;;3.50;;
33138;SDS011;19501;50.948;5.316;2023-03-23T05:11:44;13.55;;;3.55;;
33138;SDS011;19501;50.948;5.316;2023-03-23T05:14:10;26.23;;;4.90;;
33138;SDS011;19501;50.948;5.316;2023-03-23T05:16:36;12.60;;;3.20;;
33138;SDS011;19501;50.948;5.316;2023-03-23T05:19:03;14.30;;;3.60;;
33138;SDS011;19501;50.948;5.316;2023-03-23T05:21:30;8.70;;;2.90;;
33138;SDS011;19501;50.948;5.316;2023-03-23T05:23:58;14.77;;;3.53;;
33138;SDS011;19501;50.948;5.316;2023-03-23T05:26:26;14.10;;;3.13;;
33138;SDS011;19501;50.948;5.316;2023-03-23T05:28:55;9.40;;;2.97;;
33138;SDS011;19501;50.948;5.316;2023-03-23T05:31:21;12.48;;;3.22;;
33138;SDS011;19501;50.948;5.316;2023-03-23T05:33:49;11.52;;;3.15;;
33138;SDS011;19501;50.948;5.316;2023-03-23T05:36:14;9.20;;;3.00;;
33138;SDS011;19501;50.948;5.316;2023-03-23T05:38:42;11.45;;;2.65;;
33138;SDS011;19501;50.948;5.316;2023-03-23T05:41:13;10.23;;;3.63;;
33138;SDS011;19501;50.948;5.316;2023-03-23T05:43:39;13.00;;;3.25;;
33138;SDS011;19501;50.948;5.316;2023-03-23T05:46:05;10.95;;;3.15;;
33138;SDS011;19501;50.948;5.316;2023-03-23T05:48:32;10.57;;;3.40;;
33138;SDS011;19501;50.948;5.316;2023-03-23T05:50:58;9.25;;;3.10;;
33138;SDS011;19501;50.948;5.316;2023-03-23T05:53:24;11.05;;;3.40;;
33138;SDS011;19501;50.948;5.316;2023-03-23T05:55:50;12.10;;;3.15;;
33138;SDS011;19501;50.948;5.316;2023-03-23T05:58:17;13.52;;;3.53;;
33138;SDS011;19501;50.948;5.316;2023-03-23T06:00:43;7.38;;;2.97;;
33138;SDS011;19501;50.948;5.316;2023-03-23T06:03:10;11.35;;;3.08;;
33138;SDS011;19501;50.948;5.316;2023-03-23T06:05:41;9.65;;;3.08;;
33138;SDS011;19501;50.948;5.316;2023-03-23T06:08:09;10.65;;;3.25;;
33138;SDS011;19501;50.948;5.316;2023-03-23T06:10:35;11.13;;;3.55;;
33138;SDS011;19501;50.948;5.316;2023-03-23T06:13:01;11.43;;;3.20;;
33138;SDS011;19501;50.948;5.316;2023-03-23T06:15:27;9.98;;;3.22;;
33138;SDS011;19501;50.948;5.316;2023-03-23T06:17:58;9.80;;;3.08;;
33138;SDS011;19501;50.948;5.316;2023-03-23T06:20:24;7.60;;;3.25;;
33138;SDS011;19501;50.948;5.316;2023-03-23T06:22:49;10.93;;;2.90;;
33138;SDS011;19501;50.948;5.316;2023-03-23T06:25:17;7.63;;;3.08;;
33138;SDS011;19501;50.948;5.316;2023-03-23T06:27:44;9.05;;;3.40;;
33138;SDS011;19501;50.948;5.316;2023-03-23T06:30:11;9.85;;;2.85;;
33138;SDS011;19501;50.948;5.316;2023-03-23T06:32:37;10.85;;;3.42;;
33138;SDS011;19501;50.948;5.316;2023-03-23T06:35:04;10.65;;;3.33;;
33138;SDS011;19501;50.948;5.316;2023-03-23T06:37:31;8.68;;;3.08;;
33138;SDS011;19501;50.948;5.316;2023-03-23T06:39:57;13.38;;;3.00;;
33138;SDS011;19501;50.948;5.316;2023-03-23T06:42:23;16.50;;;3.47;;
33138;SDS011;19501;50.948;5.316;2023-03-23T06:44:51;11.13;;;3.28;;
33138;SDS011;19501;50.948;5.316;2023-03-23T06:47:22;10.15;;;2.95;;
33138;SDS011;19501;50.948;5.316;2023-03-23T06:49:48;11.05;;;2.85;;
33138;SDS011;19501;50.948;5.316;2023-03-23T06:52:14;10.10;;;2.78;;
33138;SDS011;19501;50.948;5.316;2023-03-23T06:54:40;10.77;;;2.85;;
33138;SDS011;19501;50.948;5.316;2023-03-23T06:57:05;10.85;;;3.05;;
33138;SDS011;19501;50.948;5.316;2023-03-23T06:59:32;14.15;;;3.42;;
33138;SDS011;19501;50.948;5.316;2023-03-23T07:01:57;8.40;;;3.10;;
33138;SDS011;19501;50.948;5.316;2023-03-23T07:04:23;11.30;;;2.83;;
33138;SDS011;19501;50.948;5.316;2023-03-23T07:06:52;14.75;;;3.25;;
33138;SDS011;19501;50.948;5.316;2023-03-23T07:09:17;14.30;;;3.05;;
33138;SDS011;19501;50.948;5.316;2023-03-23T07:11:43;8.18;;;3.10;;
33138;SDS011;19501;50.948;5.316;2023-03-23T07:14:10;8.90;;;2.72;;
33138;SDS011;19501;50.948;5.316;2023-03-23T07:16:36;14.80;;;2.83;;
33138;SDS011;19501;50.948;5.316;2023-03-23T07:19:02;11.30;;;3.25;;
33138;SDS011;19501;50.948;5.316;2023-03-23T07:21:28;8.90;;;2.90;;
33138;SDS011;19501;50.948;5.316;2023-03-23T07:23:53;9.23;;;2.80;;
33138;SDS011;19501;50.948;5.316;2023-03-23T07:26:22;12.52;;;3.33;;
33138;SDS011;19501;50.948;5.316;2023-03-23T07:28:50;6.68;;;2.63;;
33138;SDS011;19501;50.948;5.316;2023-03-23T07:31:15;4.80;;;2.85;;
33138;SDS011;19501;50.948;5.316;2023-03-23T07:33:41;19.08;;;4.25;;
33138;SDS011;19501;50.948;5.316;2023-03-23T07:36:07;13.10;;;3.17;;
33138;SDS011;19501;50.948;5.316;2023-03-23T07:38:33;9.27;;;3.25;;
33138;SDS011;19501;50.948;5.316;2023-03-23T07:40:59;12.98;;;2.58;;
33138;SDS011;19501;50.948;5.316;2023-03-23T07:43:24;12.35;;;2.40;;
33138;SDS011;19501;50.948;5.316;2023-03-23T07:45:51;10.40;;;2.72;;
33138;SDS011;19501;50.948;5.316;2023-03-23T07:48:17;14.15;;;3.13;;
33138;SDS011;19501;50.948;5.316;2023-03-23T07:50:42;11.70;;;3.20;;
33138;SDS011;19501;50.948;5.316;2023-03-23T07:53:08;8.40;;;2.92;;
33138;SDS011;19501;50.948;5.316;2023-03-23T07:55:34;15.27;;;3.58;;
33138;SDS011;19501;50.948;5.316;2023-03-23T07:58:02;12.80;;;3.70;;
33138;SDS011;19501;50.948;5.316;2023-03-23T08:00:28;9.68;;;3.10;;
33138;SDS011;19501;50.948;5.316;2023-03-23T08:02:55;12.95;;;3.42;;
33138;SDS011;19501;50.948;5.316;2023-03-23T08:05:25;9.60;;;3.10;;
33138;SDS011;19501;50.948;5.316;2023-03-23T08:07:52;12.60;;;3.30;;
33138;SDS011;19501;50.948;5.316;2023-03-23T08:10:19;10.77;;;3.25;;
33138;SDS011;19501;50.948;5.316;2023-03-23T08:12:49;9.05;;;2.88;;
33138;SDS011;19501;50.948;5.316;2023-03-23T08:15:17;12.63;;;3.03;;
33138;SDS011;19501;50.948;5.316;2023-03-23T08:17:44;12.75;;;3.22;;
33138;SDS011;19501;50.948;5.316;2023-03-23T08:20:10;12.25;;;3.08;;
33138;SDS011;19501;50.948;5.316;2023-03-23T08:22:39;10.88;;;3.30;;
33138;SDS011;19501;50.948;5.316;2023-03-23T08:25:06;14.18;;;3.40;;
33138;SDS011;19501;50.948;5.316;2023-03-23T08:27:33;12.20;;;2.97;;
33138;SDS011;19501;50.948;5.316;2023-03-23T08:29:59;3.53;;;1.80;;
33138;SDS011;19501;50.948;5.316;2023-03-23T08:32:27;1.48;;;1.13;;
33138;SDS011;19501;50.948;5.316;2023-03-23T08:34:53;2.42;;;1.48;;
33138;SDS011;19501;50.948;5.316;2023-03-23T08:37:19;5.85;;;2.08;;
33138;SDS011;19501;50.948;5.316;2023-03-23T08:39:45;6.97;;;2.65;;
33138;SDS011;19501;50.948;5.316;2023-03-23T08:42:10;6.72;;;2.10;;
33138;SDS011;19501;50.948;5.316;2023-03-23T08:44:37;6.10;;;1.98;;
33138;SDS011;19501;50.948;5.316;2023-03-23T08:47:03;6.95;;;1.90;;
33138;SDS011;19501;50.948;5.316;2023-03-23T08:49:30;11.85;;;4.70;;
33138;SDS011;19501;50.948;5.316;2023-03-23T08:51:58;3.92;;;2.20;;
33138;SDS011;19501;50.948;5.316;2023-03-23T08:54:24;5.03;;;1.67;;
33138;SDS011;19501;50.948;5.316;2023-03-23T08:56:50;7.75;;;2.20;;
33138;SDS011;19501;50.948;5.316;2023-03-23T08:59:19;7.95;;;2.22;;
33138;SDS011;19501;50.948;5.316;2023-03-23T09:01:48;8.15;;;2.25;;
33138;SDS011;19501;50.948;5.316;2023-03-23T09:04:14;9.55;;;2.47;;
33138;SDS011;19501;50.948;5.316;2023-03-23T09:06:40;9.80;;;3.72;;
33138;SDS011;19501;50.948;5.316;2023-03-23T09:09:06;11.80;;;3.58;;
33138;SDS011;19501;50.948;5.316;2023-03-23T09:11:35;8.18;;;3.15;;
33138;SDS011;19501;50.948;5.316;2023-03-23T09:14:02;7.88;;;2.50;;
33138;SDS011;19501;50.948;5.316;2023-03-23T09:16:29;9.65;;;3.00;;
33138;SDS011;19501;50.948;5.316;2023-03-23T09:18:55;12.65;;;3.25;;
33138;SDS011;19501;50.948;5.316;2023-03-23T09:21:22;10.52;;;2.90;;
33138;SDS011;19501;50.948;5.316;2023-03-23T09:23:48;12.05;;;3.70;;
33138;SDS011;19501;50.948;5.316;2023-03-23T09:26:17;12.82;;;3.65;;
33138;SDS011;19501;50.948;5.316;2023-03-23T09:28:43;15.70;;;4.78;;
33138;SDS011;19501;50.948;5.316;2023-03-23T09:31:10;10.40;;;4.05;;
33138;SDS011;19501;50.948;5.316;2023-03-23T09:33:37;12.15;;;3.92;;
33138;SDS011;19501;50.948;5.316;2023-03-23T09:36:03;12.95;;;3.40;;
33138;SDS011;19501;50.948;5.316;2023-03-23T09:38:30;10.75;;;3.72;;
33138;SDS011;19501;50.948;5.316;2023-03-23T09:43:58;10.98;;;4.00;;
33138;SDS011;19501;50.948;5.316;2023-03-23T09:46:35;14.45;;;4.18;;
33138;SDS011;19501;50.948;5.316;2023-03-23T09:49:22;11.38;;;4.22;;
33138;SDS011;19501;50.948;5.316;2023-03-23T09:52:00;11.65;;;4.40;;
33138;SDS011;19501;50.948;5.316;2023-03-23T09:54:48;16.17;;;4.65;;
33138;SDS011;19501;50.948;5.316;2023-03-23T10:02:54;14.82;;;5.18;;
33138;SDS011;19501;50.948;5.316;2023-03-23T10:08:10;16.05;;;5.25;;
33138;SDS011;19501;50.948;5.316;2023-03-23T10:11:02;14.25;;;4.72;;
33138;SDS011;19501;50.948;5.316;2023-03-23T10:17:31;9.13;;;2.58;;
33138;SDS011;19501;50.948;5.316;2023-03-23T10:23:01;13.02;;;2.95;;
33138;SDS011;19501;50.948;5.316;2023-03-23T10:25:35;15.48;;;3.10;;
33138;SDS011;19501;50.948;5.316;2023-03-23T10:30:42;10.55;;;3.00;;
33138;SDS011;19501;50.948;5.316;2023-03-23T10:33:31;13.60;;;3.58;;
33138;SDS011;19501;50.948;5.316;2023-03-23T10:38:51;9.52;;;3.42;;
33138;SDS011;19501;50.948;5.316;2023-03-23T10:41:19;10.40;;;3.30;;
33138;SDS011;19501;50.948;5.316;2023-03-23T10:43:46;11.52;;;3.58;;
33138;SDS011;19501;50.948;5.316;2023-03-23T10:49:37;8.93;;;3.55;;
33138;SDS011;19501;50.948;5.316;2023-03-23T10:52:27;11.35;;;3.42;;
33138;SDS011;19501;50.948;5.316;2023-03-23T10:55:15;13.90;;;3.92;;
33138;SDS011;19501;50.948;5.316;2023-03-23T10:57:43;10.00;;;4.03;;
33138;SDS011;19501;50.948;5.316;2023-03-23T11:02:43;12.73;;;4.57;;
33138;SDS011;19501;50.948;5.316;2023-03-23T11:05:21;8.82;;;3.22;;
33138;SDS011;19501;50.948;5.316;2023-03-23T11:07:54;11.35;;;3.67;;
33138;SDS011;19501;50.948;5.316;2023-03-23T11:10:23;11.07;;;4.10;;
33138;SDS011;19501;50.948;5.316;2023-03-23T11:12:57;7.87;;;3.30;;
33138;SDS011;19501;50.948;5.316;2023-03-23T11:15:27;10.25;;;3.67;;
33138;SDS011;19501;50.948;5.316;2023-03-23T11:17:59;7.60;;;2.80;;
33138;SDS011;19501;50.948;5.316;2023-03-23T11:20:32;9.27;;;3.20;;
33138;SDS011;19501;50.948;5.316;2023-03-23T11:23:22;8.20;;;3.05;;
33138;SDS011;19501;50.948;5.316;2023-03-23T11:25:52;10.82;;;3.47;;
33138;SDS011;19501;50.948;5.316;2023-03-23T11:28:36;8.25;;;2.60;;
33138;SDS011;19501;50.948;5.316;2023-03-23T11:31:07;11.13;;;3.30;;
33138;SDS011;19501;50.948;5.316;2023-03-23T11:33:37;9.95;;;3.63;;
33138;SDS011;19501;50.948;5.316;2023-03-23T11:36:16;12.15;;;3.75;;
33138;SDS011;19501;50.948;5.316;2023-03-23T11:38:42;13.18;;;3.67;;
33138;SDS011;19501;50.948;5.316;2023-03-23T11:41:12;6.25;;;2.72;;
33138;SDS011;19501;50.948;5.316;2023-03-23T11:43:44;6.90;;;2.90;;
33138;SDS011;19501;50.948;5.316;2023-03-23T11:49:00;7.80;;;3.08;;
33138;SDS011;19501;50.948;5.316;2023-03-23T11:52:02;9.77;;;3.22;;
33138;SDS011;19501;50.948;5.316;2023-03-23T11:54:37;11.35;;;3.72;;
33138;SDS011;19501;50.948;5.316;2023-03-23T11:57:10;16.45;;;3.97;;
33138;SDS011;19501;50.948;5.316;2023-03-23T11:59:41;9.98;;;3.65;;
33138;SDS011;19501;50.948;5.316;2023-03-23T12:12:59;12.32;;;4.18;;
33138;SDS011;19501;50.948;5.316;2023-03-23T12:26:07;13.52;;;4.28;;
33138;SDS011;19501;50.948;5.316;2023-03-23T12:44:46;11.35;;;4.32;;
33138;SDS011;19501;50.948;5.316;2023-03-23T12:52:41;10.07;;;3.60;;
33138;SDS011;19501;50.948;5.316;2023-03-23T12:57:58;11.02;;;3.20;;
33138;SDS011;19501;50.948;5.316;2023-03-23T13:00:33;11.65;;;2.80;;
33138;SDS011;19501;50.948;5.316;2023-03-23T13:06:12;10.10;;;3.25;;
33138;SDS011;19501;50.948;5.316;2023-03-23T13:11:49;14.25;;;3.80;;
33138;SDS011;19501;50.948;5.316;2023-03-23T13:22:46;19.45;;;4.82;;
33138;SDS011;19501;50.948;5.316;2023-03-23T13:26:08;13.43;;;3.70;;
33138;SDS011;19501;50.948;5.316;2023-03-23T13:28:22;14.02;;;4.45;;
33138;SDS011;19501;50.948;5.316;2023-03-23T13:33:30;14.75;;;4.30;;
33138;SDS011;19501;50.948;5.316;2023-03-23T13:36:02;12.02;;;4.10;;
33138;SDS011;19501;50.948;5.316;2023-03-23T13:38:38;22.63;;;5.55;;
33138;SDS011;19501;50.948;5.316;2023-03-23T13:41:11;23.13;;;5.80;;
33138;SDS011;19501;50.948;5.316;2023-03-23T13:43:39;11.13;;;3.95;;
33138;SDS011;19501;50.948;5.316;2023-03-23T13:46:07;17.80;;;5.25;;
33138;SDS011;19501;50.948;5.316;2023-03-23T13:56:41;18.75;;;4.95;;
33138;SDS011;19501;50.948;5.316;2023-03-23T14:01:57;17.52;;;4.65;;
33138;SDS011;19501;50.948;5.316;2023-03-23T14:04:56;18.75;;;4.85;;
33138;SDS011;19501;50.948;5.316;2023-03-23T14:07:49;16.13;;;5.07;;
33138;SDS011;19501;50.948;5.316;2023-03-23T14:10:42;16.00;;;4.50;;
33138;SDS011;19501;50.948;5.316;2023-03-23T14:13:32;17.48;;;4.57;;
33138;SDS011;19501;50.948;5.316;2023-03-23T14:16:23;16.33;;;4.68;;
33138;SDS011;19501;50.948;5.316;2023-03-23T14:21:32;13.00;;;4.80;;
33138;SDS011;19501;50.948;5.316;2023-03-23T14:24:01;13.63;;;5.35;;
33138;SDS011;19501;50.948;5.316;2023-03-23T14:26:33;12.65;;;4.82;;
33138;SDS011;19501;50.948;5.316;2023-03-23T14:29:01;15.45;;;4.70;;
33138;SDS011;19501;50.948;5.316;2023-03-23T14:31:28;16.52;;;5.05;;
33138;SDS011;19501;50.948;5.316;2023-03-23T14:33:55;13.77;;;4.88;;
33138;SDS011;19501;50.948;5.316;2023-03-23T14:36:26;11.57;;;4.13;;
33138;SDS011;19501;50.948;5.316;2023-03-23T14:41:44;17.33;;;4.00;;
33138;SDS011;19501;50.948;5.316;2023-03-23T14:44:12;18.85;;;4.25;;
33138;SDS011;19501;50.948;5.316;2023-03-23T14:46:42;14.60;;;4.27;;
33138;SDS011;19501;50.948;5.316;2023-03-23T14:49:12;13.35;;;4.18;;
33138;SDS011;19501;50.948;5.316;2023-03-23T14:51:50;11.82;;;4.00;;
33138;SDS011;19501;50.948;5.316;2023-03-23T14:54:35;13.88;;;3.67;;
33138;SDS011;19501;50.948;5.316;2023-03-23T14:57:13;13.02;;;3.83;;
33138;SDS011;19501;50.948;5.316;2023-03-23T14:59:41;17.77;;;4.55;;
33138;SDS011;19501;50.948;5.316;2023-03-23T15:02:20;18.58;;;4.75;;
33138;SDS011;19501;50.948;5.316;2023-03-23T15:04:51;14.85;;;4.55;;
33138;SDS011;19501;50.948;5.316;2023-03-23T15:07:21;14.45;;;4.47;;
33138;SDS011;19501;50.948;5.316;2023-03-23T15:09:54;17.58;;;4.60;;
33138;SDS011;19501;50.948;5.316;2023-03-23T15:12:23;18.30;;;5.22;;
33138;SDS011;19501;50.948;5.316;2023-03-23T15:14:56;14.60;;;4.20;;
33138;SDS011;19501;50.948;5.316;2023-03-23T15:17:24;13.75;;;4.32;;
33138;SDS011;19501;50.948;5.316;2023-03-23T15:19:52;11.93;;;4.32;;
33138;SDS011;19501;50.948;5.316;2023-03-23T15:22:23;19.40;;;4.40;;
33138;SDS011;19501;50.948;5.316;2023-03-23T15:25:01;12.35;;;4.15;;
33138;SDS011;19501;50.948;5.316;2023-03-23T15:32:42;17.52;;;4.68;;
33138;SDS011;19501;50.948;5.316;2023-03-23T15:35:14;16.35;;;5.22;;
33138;SDS011;19501;50.948;5.316;2023-03-23T15:37:42;16.10;;;4.57;;
33138;SDS011;19501;50.948;5.316;2023-03-23T15:40:17;14.90;;;5.30;;
33138;SDS011;19501;50.948;5.316;2023-03-23T15:42:47;16.95;;;4.50;;
33138;SDS011;19501;50.948;5.316;2023-03-23T15:52:51;12.15;;;3.65;;
33138;SDS011;19501;50.948;5.316;2023-03-23T15:57:46;13.98;;;4.07;;
33138;SDS011;19501;50.948;5.316;2023-03-23T16:00:14;19.48;;;3.58;;
33138;SDS011;19501;50.948;5.316;2023-03-23T16:02:44;11.55;;;3.42;;
33138;SDS011;19501;50.948;5.316;2023-03-23T16:05:11;13.13;;;3.50;;
33138;SDS011;19501;50.948;5.316;2023-03-23T16:07:38;15.38;;;4.65;;
33138;SDS011;19501;50.948;5.316;2023-03-23T16:10:05;13.98;;;4.65;;
33138;SDS011;19501;50.948;5.316;2023-03-23T16:12:31;15.25;;;4.05;;
33138;SDS011;19501;50.948;5.316;2023-03-23T16:14:57;11.40;;;3.78;;
33138;SDS011;19501;50.948;5.316;2023-03-23T16:17:23;16.77;;;3.83;;
33138;SDS011;19501;50.948;5.316;2023-03-23T16:19:49;11.98;;;3.65;;
33138;SDS011;19501;50.948;5.316;2023-03-23T16:22:14;8.38;;;2.90;;
33138;SDS011;19501;50.948;5.316;2023-03-23T16:24:43;11.50;;;3.72;;
33138;SDS011;19501;50.948;5.316;2023-03-23T16:27:09;19.70;;;4.32;;
33138;SDS011;19501;50.948;5.316;2023-03-23T16:29:35;16.88;;;3.50;;
33138;SDS011;19501;50.948;5.316;2023-03-23T16:32:01;13.65;;;4.38;;
33138;SDS011;19501;50.948;5.316;2023-03-23T16:34:26;14.95;;;3.47;;
33138;SDS011;19501;50.948;5.316;2023-03-23T16:36:54;11.95;;;4.13;;
33138;SDS011;19501;50.948;5.316;2023-03-23T16:39:20;14.90;;;4.40;;
33138;SDS011;19501;50.948;5.316;2023-03-23T16:41:46;16.38;;;5.07;;
33138;SDS011;19501;50.948;5.316;2023-03-23T16:44:14;16.83;;;4.00;;
33138;SDS011;19501;50.948;5.316;2023-03-23T16:46:40;13.80;;;3.95;;
33138;SDS011;19501;50.948;5.316;2023-03-23T16:49:06;16.95;;;4.45;;
33138;SDS011;19501;50.948;5.316;2023-03-23T16:51:32;14.15;;;3.60;;
33138;SDS011;19501;50.948;5.316;2023-03-23T16:53:57;17.35;;;4.13;;
33138;SDS011;19501;50.948;5.316;2023-03-23T16:56:23;13.30;;;3.42;;
33138;SDS011;19501;50.948;5.316;2023-03-23T16:58:49;15.75;;;4.07;;
33138;SDS011;19501;50.948;5.316;2023-03-23T17:01:14;13.52;;;3.75;;
33138;SDS011;19501;50.948;5.316;2023-03-23T17:03:40;14.93;;;4.15;;
33138;SDS011;19501;50.948;5.316;2023-03-23T17:06:06;10.00;;;3.17;;
33138;SDS011;19501;50.948;5.316;2023-03-23T17:08:33;11.38;;;3.55;;
33138;SDS011;19501;50.948;5.316;2023-03-23T17:10:59;18.05;;;3.90;;
33138;SDS011;19501;50.948;5.316;2023-03-23T17:13:24;14.35;;;3.35;;
33138;SDS011;19501;50.948;5.316;2023-03-23T17:15:53;14.85;;;3.55;;
33138;SDS011;19501;50.948;5.316;2023-03-23T17:18:21;11.48;;;3.60;;
33138;SDS011;19501;50.948;5.316;2023-03-23T17:20:48;14.65;;;4.25;;
33138;SDS011;19501;50.948;5.316;2023-03-23T17:23:14;20.00;;;4.80;;
33138;SDS011;19501;50.948;5.316;2023-03-23T17:25:42;16.13;;;4.30;;